Time;durP1;ratioP1;P1;durP2;ratioP2;P2;SDS_P1;SDS_P2;PMS_P1;PMS_P2;Temp;Humidity;BMP_temperature;BMP_pressure;BME280_temperature;BME280_humidity;BME280_pressure;Samples;Min_cycle;Max_cycle;Signal;HPM_P1;HPM_P2
2022/09/28 00:02:03;;;;;;;9.93;9.43;;;;;;;11.93;100.00;91883.06;5132068;28;20255;-74
2022/09/28 00:04:28;;;;;;;9.90;9.47;;;;;;;11.97;100.00;91878.78;5132517;28;20195;-74
2022/09/28 00:06:54;;;;;;;9.23;8.73;;;;;;;11.89;100.00;91884.75;5130988;28;20245;-74
2022/09/28 00:09:19;;;;;;;9.80;9.13;;;;;;;11.94;100.00;91868.94;5132960;28;20240;-74
2022/09/28 00:11:45;;;;;;;9.20;8.80;;;;;;;11.98;100.00;91873.25;5130686;28;20193;-73
2022/09/28 00:14:12;;;;;;;9.67;8.97;;;;;;;11.90;100.00;91862.75;5131143;28;20215;-74
2022/09/28 00:16:40;;;;;;;8.60;8.00;;;;;;;11.70;100.00;91876.38;5131809;28;20256;-75
2022/09/28 00:19:05;;;;;;;8.83;8.50;;;;;;;11.74;100.00;91870.25;5131444;27;20177;-74
2022/09/28 00:21:34;;;;;;;10.00;9.50;;;;;;;11.76;100.00;91875.16;5131713;28;20181;-74
2022/09/28 00:24:17;;;;;;;9.53;9.13;;;;;;;11.69;100.00;91874.84;5130089;28;20180;-75
2022/09/28 00:26:48;;;;;;;10.27;9.67;;;;;;;11.78;100.00;91879.00;5130486;27;20191;-74
2022/09/28 00:29:18;;;;;;;9.53;9.03;;;;;;;11.57;100.00;91875.38;5128968;28;20187;-74
2022/09/28 00:31:44;;;;;;;9.47;8.87;;;;;;;11.60;100.00;91874.00;5130308;27;20190;-74
2022/09/28 00:34:09;;;;;;;8.87;8.47;;;;;;;11.58;100.00;91876.91;5131085;28;20239;-74
2022/09/28 00:36:35;;;;;;;9.47;8.77;;;;;;;11.58;100.00;91850.03;5130107;28;20202;-75
2022/09/28 00:39:06;;;;;;;9.33;8.83;;;;;;;11.65;100.00;91873.91;5131694;28;20176;-74
2022/09/28 00:41:32;;;;;;;8.17;7.77;;;;;;;11.53;100.00;91869.22;5131244;28;20179;-74
2022/09/28 00:44:45;;;;;;;9.70;9.20;;;;;;;11.48;100.00;91865.97;5131506;28;20243;-74
2022/09/28 00:47:31;;;;;;;10.17;9.47;;;;;;;11.53;100.00;91864.00;5109196;28;20291;-74
2022/09/28 00:50:04;;;;;;;9.43;8.93;;;;;;;11.46;100.00;91860.25;5109407;28;20207;-74
2022/09/28 00:52:35;;;;;;;9.77;9.17;;;;;;;11.33;100.00;91859.31;5124187;27;20265;-74
2022/09/28 00:55:05;;;;;;;10.27;9.77;;;;;;;11.48;100.00;91858.91;5130496;28;20199;-74
2022/09/28 00:57:31;;;;;;;10.50;10.00;;;;;;;11.38;100.00;91840.84;5130196;28;20239;-74
2022/09/28 00:59:59;;;;;;;9.87;9.27;;;;;;;11.39;100.00;91843.16;5129627;28;20219;-74
2022/09/28 01:02:25;;;;;;;9.23;8.73;;;;;;;11.52;100.00;91865.06;5128649;28;20243;-75
2022/09/28 01:04:51;;;;;;;10.00;9.13;;;;;;;11.51;100.00;91855.69;5129765;28;20174;-74
2022/09/28 01:07:17;;;;;;;8.20;7.80;;;;;;;11.55;100.00;91871.53;5130406;28;20287;-74
2022/09/28 01:09:44;;;;;;;9.47;9.00;;;;;;;11.51;100.00;91871.38;5129945;28;20255;-74
2022/09/28 01:12:10;;;;;;;9.50;8.80;;;;;;;11.30;100.00;91875.56;5130408;28;20207;-73
2022/09/28 01:14:36;;;;;;;9.43;8.83;;;;;;;11.39;100.00;91861.47;5128729;28;20301;-75
2022/09/28 01:17:15;;;;;;;9.43;8.93;;;;;;;11.48;100.00;91877.19;5130359;28;20221;-74
2022/09/28 01:20:14;;;;;;;9.60;9.10;;;;;;;11.41;100.00;91882.06;5130743;28;20180;-74
2022/09/28 01:22:42;;;;;;;10.30;9.70;;;;;;;11.50;100.00;91875.06;5129410;28;20333;-74
2022/09/28 01:25:07;;;;;;;9.13;8.60;;;;;;;11.45;100.00;91866.56;5129529;28;20209;-74
2022/09/28 01:27:38;;;;;;;9.93;9.23;;;;;;;10.98;100.00;91826.22;5129256;28;20299;-72
2022/09/28 01:30:07;;;;;;;8.90;8.50;;;;;;;11.31;100.00;91882.34;5130278;28;20215;-74
2022/09/28 01:32:40;;;;;;;9.70;9.03;;;;;;;11.39;100.00;91866.69;5130550;28;20280;-75
2022/09/28 01:35:34;;;;;;;9.27;8.77;;;;;;;11.31;100.00;91862.19;5128433;28;20211;-74
2022/09/28 01:38:04;;;;;;;9.37;8.80;;;;;;;11.44;100.00;91875.47;5130130;28;20235;-74
2022/09/28 01:40:31;;;;;;;9.80;9.03;;;;;;;11.45;100.00;91877.78;5129915;28;20164;-73
2022/09/28 01:43:04;;;;;;;9.53;9.13;;;;;;;11.43;100.00;91873.94;5129568;28;20215;-74
2022/09/28 01:45:40;;;;;;;10.73;9.93;;;;;;;11.49;100.00;91875.34;5129424;28;20184;-75
2022/09/28 01:48:08;;;;;;;9.57;9.00;;;;;;;11.44;100.00;91880.72;5128749;28;20218;-74
2022/09/28 01:50:37;;;;;;;9.43;8.93;;;;;;;11.34;100.00;91872.06;5128912;28;20196;-74
2022/09/28 01:53:24;;;;;;;9.50;8.90;;;;;;;11.48;100.00;91886.88;5127960;28;20231;-75
2022/09/28 01:55:56;;;;;;;10.37;9.67;;;;;;;11.48;100.00;91886.88;5130235;28;20183;-74
2022/09/28 01:58:27;;;;;;;9.43;8.93;;;;;;;11.47;100.00;91885.34;5129132;28;20244;-74
2022/09/28 02:00:59;;;;;;;9.27;8.77;;;;;;;11.33;100.00;91875.72;5130833;28;20219;-74
2022/09/28 02:03:32;;;;;;;9.57;9.07;;;;;;;11.23;100.00;91881.22;5129835;28;20233;-74
2022/09/28 02:06:23;;;;;;;9.20;8.70;;;;;;;11.01;100.00;91873.41;5129212;28;20242;-75
2022/09/28 02:08:53;;;;;;;10.13;9.63;;;;;;;11.15;100.00;91873.34;5126481;28;20306;-74
2022/09/28 02:11:21;;;;;;;10.23;9.63;;;;;;;11.25;100.00;91867.88;5128401;28;20244;-75
2022/09/28 02:13:59;;;;;;;10.13;9.53;;;;;;;11.14;100.00;91862.09;5128326;28;20216;-74
2022/09/28 02:16:51;;;;;;;9.77;9.27;;;;;;;11.00;100.00;91864.03;5130268;28;20254;-75
2022/09/28 02:19:26;;;;;;;9.17;8.67;;;;;;;11.18;100.00;91889.19;5128959;28;20242;-74
2022/09/28 02:22:03;;;;;;;9.87;9.27;;;;;;;10.99;100.00;91867.72;5128223;28;20218;-73
2022/09/28 02:24:37;;;;;;;9.33;8.93;;;;;;;10.93;100.00;91853.25;5129307;28;20181;-75
2022/09/28 02:27:11;;;;;;;10.50;10.00;;;;;;;11.09;100.00;91874.53;5127063;28;20230;-75
2022/09/28 02:29:37;;;;;;;9.43;9.03;;;;;;;11.13;100.00;91883.31;5129298;28;20195;-73
2022/09/28 02:32:02;;;;;;;10.33;9.50;;;;;;;11.12;100.00;91881.78;5127976;28;20238;-74
2022/09/28 02:34:27;;;;;;;10.53;10.03;;;;;;;11.11;100.00;91891.44;5128316;28;20210;-74
2022/09/28 02:36:53;;;;;;;11.53;10.80;;;;;;;11.15;100.00;91894.22;5127836;27;20226;-74
2022/09/28 02:39:19;;;;;;;10.33;9.80;;;;;;;10.91;100.00;91847.53;5128853;28;20272;-74
2022/09/28 02:42:07;;;;;;;11.73;10.73;;;;;;;11.06;100.00;91877.75;5127839;28;20220;-74
2022/09/28 02:44:56;;;;;;;10.33;9.73;;;;;;;10.91;100.00;91885.97;5117127;28;20196;-74
2022/09/28 02:48:03;;;;;;;10.37;9.80;;;;;;;11.02;100.00;91895.06;5128807;28;20234;-74
2022/09/28 02:50:46;;;;;;;11.33;10.43;;;;;;;10.83;100.00;91845.63;5129620;28;20287;-74
2022/09/28 02:53:38;;;;;;;11.37;10.50;;;;;;;11.13;100.00;91881.47;5126289;28;20215;-73
2022/09/28 02:56:45;;;;;;;11.30;10.30;;;;;;;11.02;100.00;91882.00;5127794;28;20187;-72
2022/09/28 02:59:29;;;;;;;11.57;10.97;;;;;;;10.89;100.00;91875.03;5128610;28;20241;-74
2022/09/28 03:02:17;;;;;;;11.73;11.03;;;;;;;10.91;100.00;91894.53;5129336;28;20242;-74
2022/09/28 03:05:13;;;;;;;11.23;10.53;;;;;;;10.81;100.00;91894.78;5127578;28;20192;-72
2022/09/28 03:08:00;;;;;;;13.20;12.40;;;;;;;10.93;100.00;91896.84;5127787;28;20248;-74
2022/09/28 03:11:11;;;;;;;11.23;10.63;;;;;;;10.88;100.00;91905.56;5128794;28;20187;-73
2022/09/28 03:13:37;;;;;;;13.20;12.20;;;;;;;10.68;100.00;91890.38;5126153;28;20257;-74
2022/09/28 03:16:14;;;;;;;11.97;11.17;;;;;;;10.87;100.00;91909.28;5128701;28;20247;-75
2022/09/28 03:18:40;;;;;;;12.47;11.67;;;;;;;10.99;100.00;91921.78;5128608;28;20278;-74
2022/09/28 03:21:05;;;;;;;12.33;11.43;;;;;;;10.93;100.00;91902.06;5128521;28;20209;-74
2022/09/28 03:23:31;;;;;;;12.20;11.17;;;;;;;11.02;100.00;91916.75;5127890;28;20216;-71
2022/09/28 03:25:56;;;;;;;11.83;10.87;;;;;;;10.91;100.00;91878.88;5128388;28;20191;-72
2022/09/28 03:28:22;;;;;;;11.63;10.83;;;;;;;11.24;100.00;91918.56;5128446;28;20656;-72
2022/09/28 03:30:48;;;;;;;11.73;10.93;;;;;;;11.18;100.00;91917.13;5128039;28;20203;-71
2022/09/28 03:33:13;;;;;;;12.53;11.83;;;;;;;11.26;100.00;91919.03;5128589;28;20919;-72
2022/09/28 03:35:39;;;;;;;13.00;11.90;;;;;;;11.26;100.00;91919.03;5126251;28;20213;-71
2022/09/28 03:38:04;;;;;;;11.83;11.13;;;;;;;11.25;100.00;91899.97;5128383;28;20286;-71
2022/09/28 03:40:29;;;;;;;11.00;10.30;;;;;;;11.20;100.00;91894.91;5128827;28;20192;-71
2022/09/28 03:42:55;;;;;;;11.03;10.33;;;;;;;11.52;100.00;91919.94;5126873;28;20423;-73
2022/09/28 03:45:20;;;;;;;12.53;11.73;;;;;;;11.47;100.00;91916.69;5127655;28;20199;-72
2022/09/28 03:47:46;;;;;;;11.70;10.90;;;;;;;11.62;100.00;91924.13;5128767;28;20235;-72
2022/09/28 03:50:12;;;;;;;11.13;10.33;;;;;;;11.64;100.00;91933.28;5127818;28;20180;-76
2022/09/28 03:52:37;;;;;;;12.00;10.97;;;;;;;11.50;100.00;91916.88;5127488;28;20295;-76
2022/09/28 03:55:03;;;;;;;11.17;10.57;;;;;;;11.61;100.00;91928.59;5127864;28;20207;-75
2022/09/28 03:57:28;;;;;;;11.53;10.83;;;;;;;11.51;100.00;91891.50;5125678;28;20261;-74
2022/09/28 03:59:53;;;;;;;11.20;10.53;;;;;;;11.53;100.00;91931.19;5124658;28;20271;-76
2022/09/28 04:02:19;;;;;;;10.70;10.07;;;;;;;11.51;100.00;91888.88;5129947;27;20220;-75
2022/09/28 04:04:44;;;;;;;12.17;11.20;;;;;;;11.85;100.00;91923.03;5131993;28;20185;-74
2022/09/28 04:07:09;;;;;;;11.77;11.07;;;;;;;11.85;100.00;91926.44;5131082;28;20239;-75
2022/09/28 04:09:35;;;;;;;10.93;10.23;;;;;;;11.83;100.00;91927.81;5130422;28;20190;-72
2022/09/28 04:12:00;;;;;;;10.13;9.57;;;;;;;11.82;100.00;91915.78;5130707;28;20211;-73
2022/09/28 04:14:26;;;;;;;11.33;10.63;;;;;;;11.77;100.00;91919.31;5131803;28;20760;-71
2022/09/28 04:16:53;;;;;;;11.20;10.60;;;;;;;11.71;100.00;91919.75;5132589;28;20238;-72
2022/09/28 04:19:20;;;;;;;10.93;10.03;;;;;;;11.58;100.00;91903.06;5131234;28;20230;-73
2022/09/28 04:21:47;;;;;;;12.70;11.63;;;;;;;11.58;100.00;91918.72;5130579;27;20187;-74
2022/09/28 04:24:13;;;;;;;11.47;10.87;;;;;;;11.70;100.00;91908.53;5130395;28;20199;-73
2022/09/28 04:26:38;;;;;;;13.27;11.87;;;;;;;11.51;100.00;91928.88;5130153;28;20168;-74
2022/09/28 04:29:16;;;;;;;11.47;10.67;;;;;;;11.62;100.00;91908.47;5131945;28;20184;-75
2022/09/28 04:31:50;;;;;;;11.53;10.63;;;;;;;11.53;100.00;91899.81;5131960;28;20222;-75
2022/09/28 04:34:18;;;;;;;12.67;11.70;;;;;;;11.61;100.00;91917.38;5130572;28;20211;-79
2022/09/28 04:36:45;;;;;;;11.53;10.63;;;;;;;11.90;100.00;91928.91;5130304;27;20241;-77
2022/09/28 04:39:16;;;;;;;11.40;10.60;;;;;;;12.08;100.00;91932.34;5130694;28;20199;-76
2022/09/28 04:41:41;;;;;;;10.47;9.77;;;;;;;12.06;100.00;91919.56;5128414;28;20203;-77
2022/09/28 04:44:07;;;;;;;10.63;10.07;;;;;;;12.24;100.00;91930.84;5131564;27;20176;-77
2022/09/28 04:46:33;;;;;;;10.40;9.80;;;;;;;12.42;100.00;91921.97;5128138;28;20199;-77
2022/09/28 04:48:59;;;;;;;11.20;10.40;;;;;;;12.47;100.00;91924.41;5131920;28;20231;-78
2022/09/28 04:51:24;;;;;;;11.40;10.70;;;;;;;12.47;100.00;91929.66;5131099;28;20183;-77
2022/09/28 04:53:49;;;;;;;11.97;10.83;;;;;;;12.34;100.00;91920.84;5130366;27;20231;-77
2022/09/28 04:56:16;;;;;;;11.50;10.90;;;;;;;12.32;100.00;91924.88;5130719;28;20187;-78
2022/09/28 04:58:42;;;;;;;11.57;10.87;;;;;;;12.17;100.00;91893.91;5127314;28;20223;-77
2022/09/28 05:01:12;;;;;;;11.50;10.77;;;;;;;12.39;100.00;91919.97;5129887;28;20179;-76
2022/09/28 05:03:37;;;;;;;10.90;10.17;;;;;;;12.50;100.00;91918.56;5131890;28;20219;-77
2022/09/28 05:06:03;;;;;;;11.17;10.57;;;;;;;12.44;100.00;91909.34;5130793;28;20277;-77
2022/09/28 05:08:29;;;;;;;10.90;10.10;;;;;;;12.19;100.00;91907.44;5130738;28;21151;-77
2022/09/28 05:11:03;;;;;;;11.00;10.07;;;;;;;12.51;100.00;91941.84;5128772;28;20248;-77
2022/09/28 05:13:30;;;;;;;11.13;10.53;;;;;;;12.53;100.00;91897.00;5131159;27;20249;-77
2022/09/28 05:15:57;;;;;;;9.87;9.37;;;;;;;12.72;100.00;91955.09;5131383;28;20216;-76
2022/09/28 05:18:22;;;;;;;10.23;9.63;;;;;;;12.79;100.00;91942.34;5130053;28;20226;-77
2022/09/28 05:20:49;;;;;;;10.53;9.93;;;;;;;12.64;100.00;91913.97;5127927;28;20191;-77
2022/09/28 05:23:15;;;;;;;11.77;10.93;;;;;;;12.70;100.00;91931.09;5128302;28;20256;-75
2022/09/28 05:25:41;;;;;;;10.67;9.97;;;;;;;12.81;100.00;91946.19;5127993;28;20254;-75
2022/09/28 05:28:07;;;;;;;11.23;10.53;;;;;;;12.78;100.00;91940.78;5122384;28;20223;-75
2022/09/28 05:30:34;;;;;;;11.73;10.17;;;;;;;12.77;100.00;91945.28;5127148;28;20188;-75
2022/09/28 05:32:59;;;;;;;11.30;10.50;;;;;;;12.74;100.00;91934.63;5127920;28;20223;-75
2022/09/28 05:35:25;;;;;;;10.23;9.53;;;;;;;12.76;100.00;91937.72;5129541;28;20222;-75
2022/09/28 05:37:51;;;;;;;11.63;10.73;;;;;;;12.71;100.00;91924.78;5128334;28;20283;-75
2022/09/28 05:40:16;;;;;;;11.67;10.97;;;;;;;12.76;100.00;91937.72;5123777;28;20286;-75
2022/09/28 05:42:42;;;;;;;10.37;9.57;;;;;;;12.90;100.00;91938.34;5127803;28;20239;-74
2022/09/28 05:45:09;;;;;;;10.20;9.50;;;;;;;13.04;100.00;91954.72;5125632;27;20191;-74
2022/09/28 05:47:39;;;;;;;11.27;10.50;;;;;;;13.56;100.00;91945.69;5124871;28;20218;-74
2022/09/28 05:50:06;;;;;;;10.40;9.63;;;;;;;13.50;100.00;91951.41;5126947;28;20192;-75
2022/09/28 05:52:31;;;;;;;10.23;9.53;;;;;;;13.78;100.00;91945.47;5128221;28;20215;-73
2022/09/28 05:54:57;;;;;;;11.77;10.87;;;;;;;14.01;100.00;91933.66;5128153;28;20250;-74
2022/09/28 05:57:22;;;;;;;11.87;10.97;;;;;;;13.49;100.00;91919.19;5127409;28;20222;-75
2022/09/28 05:59:47;;;;;;;13.33;12.43;;;;;;;13.57;100.00;91946.47;5127339;28;20219;-75
2022/09/28 06:02:13;;;;;;;14.27;12.83;;;;;;;13.40;100.00;91939.38;5127128;28;20272;-75
2022/09/28 06:04:38;;;;;;;13.80;12.47;;;;;;;13.21;100.00;91910.16;5129173;28;20176;-75
2022/09/28 06:07:04;;;;;;;14.63;13.30;;;;;;;13.62;100.00;91947.06;5128117;28;20306;-74
2022/09/28 06:09:29;;;;;;;14.57;12.97;;;;;;;14.10;100.00;91944.13;5128173;28;20184;-74
2022/09/28 06:11:57;;;;;;;15.83;14.23;;;;;;;14.29;100.00;91958.44;5129676;28;20808;-75
2022/09/28 06:14:22;;;;;;;14.40;13.17;;;;;;;14.29;100.00;91950.56;5127783;28;20214;-75
2022/09/28 06:16:48;;;;;;;14.73;13.50;;;;;;;14.14;100.00;91930.06;5127399;28;20175;-75
2022/09/28 06:19:14;;;;;;;14.57;13.07;;;;;;;14.33;100.00;91938.31;5126669;28;20202;-73
2022/09/28 06:21:39;;;;;;;16.00;11.90;;;;;;;14.31;100.00;91940.50;5128437;28;20187;-74
2022/09/28 06:24:05;;;;;;;14.33;13.00;;;;;;;14.89;100.00;91946.78;5127857;28;20250;-74
2022/09/28 06:26:30;;;;;;;15.40;14.10;;;;;;;14.66;100.00;91961.34;5129051;28;20239;-74
2022/09/28 06:28:56;;;;;;;13.90;12.80;;;;;;;15.01;100.00;91946.84;5129349;28;20187;-73
2022/09/28 06:31:23;;;;;;;16.03;14.23;;;;;;;15.14;100.00;91967.66;5129359;28;20258;-74
2022/09/28 06:33:49;;;;;;;15.93;14.00;;;;;;;15.14;100.00;91972.13;5125651;28;20230;-74
2022/09/28 06:36:15;;;;;;;16.07;14.40;;;;;;;15.21;100.00;91972.38;5128767;28;20187;-72
2022/09/28 06:38:41;;;;;;;13.33;12.33;;;;;;;15.26;100.00;91982.69;5128205;28;20216;-73
2022/09/28 06:41:07;;;;;;;11.37;10.43;;;;;;;15.55;93.21;91977.38;5129260;28;20179;-73
2022/09/28 06:43:33;;;;;;;12.03;11.03;;;;;;;15.22;95.88;91985.19;5127605;28;20211;-73
2022/09/28 06:46:00;;;;;;;14.73;12.40;;;;;;;14.56;100.00;91993.22;5128061;28;20183;-73
2022/09/28 06:48:25;;;;;;;13.80;12.60;;;;;;;14.96;97.82;91991.75;5127889;28;20219;-73
2022/09/28 06:50:51;;;;;;;13.43;12.43;;;;;;;15.24;95.79;91998.03;5128068;28;20233;-73
2022/09/28 06:53:16;;;;;;;13.67;12.57;;;;;;;15.61;91.49;91978.72;5126790;28;20223;-73
2022/09/28 06:55:47;;;;;;;14.20;13.00;;;;;;;15.85;93.31;91982.19;5128782;28;20236;-73
2022/09/28 06:58:16;;;;;;;15.67;13.10;;;;;;;15.87;96.15;91984.50;5128564;28;20302;-73
2022/09/28 07:00:42;;;;;;;15.50;14.20;;;;;;;15.69;98.46;91996.28;5127679;28;20241;-73
2022/09/28 07:03:11;;;;;;;13.67;12.47;;;;;;;15.96;94.27;91985.19;5127473;28;20229;-73
2022/09/28 07:05:41;;;;;;;12.93;11.73;;;;;;;16.06;93.88;91975.00;5127619;27;20223;-73
2022/09/28 07:08:07;;;;;;;12.73;11.50;;;;;;;15.93;97.57;91962.13;5127273;28;20619;-73
2022/09/28 07:10:32;;;;;;;12.30;11.30;;;;;;;16.15;89.16;91959.09;5128821;28;20293;-74
2022/09/28 07:13:03;;;;;;;11.03;10.33;;;;;;;15.89;89.16;91912.00;5127432;28;20283;-74
2022/09/28 07:15:30;;;;;;;10.10;9.10;;;;;;;16.15;88.31;91988.06;5127536;28;20230;-74
2022/09/28 07:18:00;;;;;;;10.53;9.73;;;;;;;16.08;90.91;91982.56;5127343;28;20222;-74
2022/09/28 07:20:26;;;;;;;11.67;10.57;;;;;;;15.51;90.54;91976.47;5127032;28;20199;-74
2022/09/28 07:22:55;;;;;;;12.93;11.93;;;;;;;15.16;93.34;91975.22;5126535;28;20225;-73
2022/09/28 07:25:22;;;;;;;13.43;12.17;;;;;;;15.30;96.55;91991.50;5126061;28;20190;-74
2022/09/28 07:27:48;;;;;;;13.03;11.80;;;;;;;15.46;95.82;91995.09;5127001;28;20223;-73
2022/09/28 07:30:14;;;;;;;12.37;11.17;;;;;;;15.74;93.31;91996.06;5128553;28;20259;-74
2022/09/28 07:32:40;;;;;;;12.17;11.27;;;;;;;15.41;92.26;92003.19;5126256;28;20264;-73
2022/09/28 07:35:06;;;;;;;12.57;11.37;;;;;;;15.79;92.72;92014.31;5130654;28;20210;-74
2022/09/28 07:37:32;;;;;;;14.53;13.27;;;;;;;15.28;96.26;91993.66;5131395;28;20304;-74
2022/09/28 07:42:42;;;;;;;15.97;14.33;;;;;;;16.13;91.28;92006.06;5131191;28;20250;-73
2022/09/28 07:45:07;;;;;;;21.50;14.97;;;;;;;16.32;91.40;92022.13;5131628;28;20934;-74
2022/09/28 07:47:33;;;;;;;18.33;15.00;;;;;;;16.48;89.85;92022.28;5131537;28;20286;-74
2022/09/28 07:49:58;;;;;;;15.03;13.73;;;;;;;16.25;86.93;92011.34;5131781;27;20184;-74
2022/09/28 07:52:25;;;;;;;17.67;13.87;;;;;;;17.08;86.20;92017.75;5132370;28;20223;-74
2022/09/28 07:54:56;;;;;;;16.60;15.07;;;;;;;17.34;83.58;92018.16;5129037;28;20261;-74
2022/09/28 07:57:22;;;;;;;15.17;13.77;;;;;;;17.58;82.48;92020.00;5131188;28;20253;-75
2022/09/28 07:59:52;;;;;;;17.97;14.83;;;;;;;17.28;86.24;92022.13;5130785;28;20283;-75
2022/09/28 08:02:21;;;;;;;15.00;13.50;;;;;;;17.92;82.70;92029.19;5132577;27;20237;-75
2022/09/28 08:04:47;;;;;;;17.57;15.33;;;;;;;17.22;86.43;92034.00;5131025;28;20259;-76
2022/09/28 08:07:17;;;;;;;17.60;15.73;;;;;;;17.82;82.10;92024.41;5132098;28;20232;-75
2022/09/28 08:09:44;;;;;;;16.90;15.30;;;;;;;17.80;81.66;92035.31;5131513;28;20213;-75
2022/09/28 08:12:11;;;;;;;19.37;17.30;;;;;;;17.29;84.33;92028.94;5125486;28;20370;-74
2022/09/28 08:14:37;;;;;;;17.27;15.70;;;;;;;17.52;86.40;92022.09;5130059;28;20318;-76
2022/09/28 08:17:03;;;;;;;16.20;14.60;;;;;;;17.88;85.33;92039.69;5129397;28;20260;-77
2022/09/28 08:21:43;;;;;;;15.00;13.00;;;;;;;17.80;82.95;92021.34;5130272;28;20213;-78
2022/09/28 08:22:16;;;;;;;20.20;15.47;;;;;;;17.47;84.07;92032.91;5129466;28;20219;-77
2022/09/28 08:24:42;;;;;;;17.17;13.60;;;;;;;17.85;81.23;92026.38;5131077;28;20219;-77
2022/09/28 08:27:09;;;;;;;14.20;12.90;;;;;;;17.99;81.45;92037.31;5128355;28;20216;-77
2022/09/28 08:29:34;;;;;;;14.70;13.50;;;;;;;17.55;82.57;92034.63;5130262;28;20205;-77
2022/09/28 08:32:00;;;;;;;15.03;13.13;;;;;;;17.17;83.57;92030.81;5128407;28;20219;-77
2022/09/28 08:34:26;;;;;;;15.93;14.00;;;;;;;17.22;84.75;92017.41;5131427;28;20275;-78
2022/09/28 08:36:51;;;;;;;15.40;13.83;;;;;;;16.72;88.98;92014.38;5129932;28;20231;-77
2022/09/28 08:39:17;;;;;;;15.50;13.63;;;;;;;16.71;88.42;92003.06;5130385;28;20176;-77
2022/09/28 08:41:54;;;;;;;20.40;14.33;;;;;;;16.58;90.24;92017.34;5130883;28;20175;-77
2022/09/28 08:44:23;;;;;;;20.77;14.93;;;;;;;16.53;91.89;92019.44;5131345;27;20288;-77
2022/09/28 08:46:55;;;;;;;14.90;13.50;;;;;;;16.22;93.25;92017.25;5126399;28;20179;-77
2022/09/28 08:49:35;;;;;;;16.40;14.90;;;;;;;16.29;93.39;92009.59;5130882;28;20212;-76
2022/09/28 08:52:04;;;;;;;15.40;14.00;;;;;;;16.53;93.07;92024.72;5130697;28;20238;-77
2022/09/28 08:54:43;;;;;;;17.27;14.07;;;;;;;16.41;92.65;91999.06;5129645;28;20199;-77
2022/09/28 08:57:20;;;;;;;16.30;13.93;;;;;;;16.68;93.65;92013.50;5130378;28;20231;-77
2022/09/28 08:59:50;;;;;;;14.17;12.80;;;;;;;16.85;91.58;92016.69;5129754;28;20218;-77
2022/09/28 09:02:22;;;;;;;14.80;13.30;;;;;;;16.80;93.43;91998.44;5130761;27;20215;-76
2022/09/28 09:04:48;;;;;;;13.73;12.63;;;;;;;17.13;89.27;92022.03;5129959;28;20252;-77
2022/09/28 09:07:32;;;;;;;11.93;10.77;;;;;;;16.96;89.63;92015.16;5130005;28;20231;-77
2022/09/28 09:10:35;;;;;;;10.73;10.10;;;;;;;17.28;85.46;92027.41;5130826;28;20151;-77
2022/09/28 09:13:18;;;;;;;13.00;11.70;;;;;;;17.32;84.14;92016.97;5129846;28;20240;-77
2022/09/28 09:15:52;;;;;;;10.60;9.80;;;;;;;17.45;83.82;92016.63;5131039;28;20211;-76
2022/09/28 09:18:30;;;;;;;10.33;9.50;;;;;;;17.32;85.39;92020.34;5130697;28;20219;-77
2022/09/28 09:21:22;;;;;;;9.83;9.20;;;;;;;17.45;80.90;91995.50;5129796;28;20175;-77
2022/09/28 09:23:55;;;;;;;11.30;10.50;;;;;;;17.57;82.52;92016.56;5129858;27;20223;-76
2022/09/28 09:26:29;;;;;;;13.00;10.73;;;;;;;17.63;81.65;92005.78;5131805;28;20198;-77
2022/09/28 09:29:13;;;;;;;12.03;9.97;;;;;;;17.75;81.00;92014.44;5129388;28;20208;-77
2022/09/28 09:32:06;;;;;;;11.67;10.47;;;;;;;17.68;82.68;92010.84;5147602;27;20245;-76
2022/09/28 09:34:54;;;;;;;11.30;9.37;;;;;;;17.87;81.26;92010.97;5128588;28;20221;-78
2022/09/28 09:37:45;;;;;;;11.03;10.00;;;;;;;18.02;80.29;92011.00;5127835;28;20227;-76
2022/09/28 09:40:25;;;;;;;10.10;9.10;;;;;;;17.96;78.29;92012.34;5129027;28;20191;-78
2022/09/28 09:43:03;;;;;;;11.13;10.07;;;;;;;17.80;81.15;91990.44;5130641;28;20223;-77
2022/09/28 09:46:04;;;;;;;13.50;9.80;;;;;;;18.24;82.29;91994.56;5128853;28;20204;-77
2022/09/28 09:48:55;;;;;;;10.80;9.80;;;;;;;18.41;77.43;91994.28;5116779;27;20223;-77
2022/09/28 09:51:37;;;;;;;10.77;9.77;;;;;;;18.59;77.31;91992.84;5126089;28;20204;-77
2022/09/28 09:54:11;;;;;;;10.37;9.17;;;;;;;18.46;75.61;92014.44;5128176;28;20238;-77
2022/09/28 09:56:44;;;;;;;9.13;8.53;;;;;;;18.29;76.55;92004.16;5128739;28;20188;-77
2022/09/28 09:59:16;;;;;;;10.30;9.60;;;;;;;18.67;74.29;92001.72;5130041;28;20245;-76
2022/09/28 10:01:42;;;;;;;10.00;9.20;;;;;;;18.51;74.17;92012.28;5130090;28;20736;-77
2022/09/28 10:04:21;;;;;;;9.13;8.27;;;;;;;18.64;72.89;91997.09;5129945;28;20197;-77
2022/09/28 10:06:48;;;;;;;10.20;9.40;;;;;;;18.77;71.19;91988.72;5129750;28;20193;-77
2022/09/28 10:09:26;;;;;;;10.30;9.33;;;;;;;18.61;71.55;91995.94;5127364;28;20190;-76
2022/09/28 10:11:52;;;;;;;9.73;9.13;;;;;;;18.71;71.40;91995.38;5127944;28;20234;-77
2022/09/28 10:14:23;;;;;;;11.30;9.90;;;;;;;18.83;71.36;92005.13;5129218;28;20234;-77
2022/09/28 10:16:51;;;;;;;9.43;8.80;;;;;;;18.47;72.49;92010.66;5129246;28;20216;-77
2022/09/28 10:19:20;;;;;;;9.57;8.63;;;;;;;18.85;71.55;92001.00;5128300;28;20194;-77
2022/09/28 10:21:51;;;;;;;10.47;9.70;;;;;;;18.75;70.15;92001.53;5129610;28;20221;-77
2022/09/28 10:24:44;;;;;;;9.60;9.00;;;;;;;18.97;68.55;92005.44;5127807;28;20185;-77
2022/09/28 10:27:25;;;;;;;9.07;8.60;;;;;;;18.57;67.76;91981.06;5128287;28;20228;-77
2022/09/28 10:29:59;;;;;;;8.97;8.57;;;;;;;18.56;69.82;91984.81;5130127;28;20256;-77
2022/09/28 10:32:36;;;;;;;9.30;8.67;;;;;;;18.57;69.71;91989.78;5126720;28;20303;-76
2022/09/28 10:35:20;;;;;;;9.80;8.90;;;;;;;19.08;67.53;91970.16;5129140;28;20760;-77
2022/09/28 10:38:12;;;;;;;9.30;8.80;;;;;;;19.44;66.51;91970.94;5129248;28;20229;-77
2022/09/28 10:40:44;;;;;;;10.30;9.60;;;;;;;19.50;64.62;91964.25;5128680;28;20176;-77
2022/09/28 10:43:32;;;;;;;9.60;8.83;;;;;;;19.74;66.18;91987.78;5128063;28;20225;-76
2022/09/28 10:46:04;;;;;;;8.57;8.07;;;;;;;19.77;60.59;91979.91;5128957;28;20211;-77
2022/09/28 10:48:44;;;;;;;8.57;8.07;;;;;;;19.67;62.93;91966.47;5126844;28;20228;-77
2022/09/28 10:51:10;;;;;;;8.67;8.17;;;;;;;19.96;61.45;91977.25;5129465;28;20192;-77
2022/09/28 10:53:36;;;;;;;7.87;7.37;;;;;;;19.83;60.82;91967.19;5127531;28;20229;-77
2022/09/28 10:56:09;;;;;;;8.40;7.80;;;;;;;19.02;61.33;91976.06;5129911;28;20190;-77
2022/09/28 10:58:41;;;;;;;9.07;8.37;;;;;;;19.12;61.04;91976.31;5127297;28;20234;-77
2022/09/28 11:01:15;;;;;;;8.37;7.77;;;;;;;19.27;59.21;91968.66;5129037;28;20215;-76
2022/09/28 11:03:48;;;;;;;8.53;7.70;;;;;;;19.06;60.24;91953.88;5129217;28;21100;-76
2022/09/28 11:06:13;;;;;;;8.20;7.70;;;;;;;19.45;62.56;91967.94;5128013;28;20188;-74
2022/09/28 11:08:42;;;;;;;8.60;8.20;;;;;;;19.98;58.45;91959.13;5128648;28;20845;-75
2022/09/28 11:11:13;;;;;;;7.83;7.33;;;;;;;20.12;57.36;91958.63;5127947;28;20227;-76
2022/09/28 11:13:46;;;;;;;8.13;7.57;;;;;;;20.06;58.57;91960.78;5127520;28;20225;-75
2022/09/28 11:16:37;;;;;;;8.20;7.50;;;;;;;20.44;56.92;91950.13;5127255;28;20206;-75
2022/09/28 11:19:20;;;;;;;8.43;7.93;;;;;;;20.42;56.38;91959.56;5123348;28;20270;-75
2022/09/28 11:21:46;;;;;;;8.97;8.27;;;;;;;20.13;55.90;91954.84;5128290;28;20207;-75
2022/09/28 11:24:15;;;;;;;8.90;8.23;;;;;;;20.00;59.27;91951.59;5127732;28;20194;-75
2022/09/28 11:26:43;;;;;;;10.13;8.37;;;;;;;20.38;57.32;91946.22;5128546;28;20197;-75
2022/09/28 11:29:27;;;;;;;8.93;8.05;;;;;;;20.95;54.67;91941.78;5127767;28;20189;-75
2022/09/28 11:31:57;;;;;;;8.82;8.23;;;;;;;21.20;53.12;91938.38;5128449;28;20310;-75
2022/09/28 11:34:30;;;;;;;8.02;7.55;;;;;;;21.28;51.99;91931.25;5129117;28;20211;-75
2022/09/28 11:37:15;;;;;;;8.02;7.53;;;;;;;21.15;52.98;91901.53;5127497;28;20306;-75
2022/09/28 11:39:46;;;;;;;8.02;7.57;;;;;;;21.16;52.94;91918.22;5128460;28;20191;-75
2022/09/28 11:42:30;;;;;;;7.73;7.27;;;;;;;21.22;52.03;91922.84;5128307;28;20289;-75